createdAt,value
2023-03-18T00:00:36.879Z,16.10
2023-03-18T00:03:03.751Z,15.03
2023-03-18T00:05:31.191Z,13.20
2023-03-18T00:07:58.086Z,15.10
2023-03-18T00:10:24.984Z,13.00
2023-03-18T00:12:53.470Z,16.73
2023-03-18T00:15:20.117Z,15.63
2023-03-18T00:17:46.996Z,16.87
2023-03-18T00:20:13.895Z,16.60
2023-03-18T00:22:40.970Z,14.80
2023-03-18T00:25:08.084Z,13.90
2023-03-18T00:27:35.114Z,11.97
2023-03-18T00:30:02.013Z,12.47
2023-03-18T00:32:29.139Z,13.63
2023-03-18T00:34:56.985Z,14.83
2023-03-18T00:37:34.781Z,16.60
2023-03-18T00:40:06.371Z,17.10
2023-03-18T00:42:40.340Z,16.47
2023-03-18T00:45:11.171Z,14.33
2023-03-18T00:47:38.668Z,15.30
2023-03-18T00:50:06.289Z,16.93
2023-03-18T00:52:33.774Z,15.97
2023-03-18T00:55:00.794Z,16.93
2023-03-18T00:57:29.497Z,14.60
2023-03-18T00:59:57.152Z,17.47
2023-03-18T01:02:24.999Z,16.97
2023-03-18T01:04:51.761Z,12.67
2023-03-18T01:07:18.652Z,14.73
2023-03-18T01:09:45.292Z,15.43
2023-03-18T01:12:12.186Z,13.60
2023-03-18T01:14:39.522Z,15.67
2023-03-18T01:17:07.635Z,15.73
2023-03-18T01:19:34.438Z,16.03
2023-03-18T01:22:01.491Z,14.97
2023-03-18T01:24:28.818Z,15.43
2023-03-18T01:26:55.553Z,16.50
2023-03-18T01:29:23.897Z,18.90
2023-03-18T01:31:51.403Z,14.00
2023-03-18T01:34:18.266Z,14.07
2023-03-18T01:36:49.952Z,17.10
2023-03-18T01:39:18.082Z,16.43
2023-03-18T01:41:45.154Z,15.10
2023-03-18T02:16:25.809Z,12.73
2023-03-18T02:18:56.503Z,17.13
2023-03-18T02:21:35.263Z,16.07
2023-03-18T02:24:11.984Z,14.10
2023-03-18T02:26:38.897Z,16.20
2023-03-18T02:29:06.639Z,15.00
2023-03-18T02:31:43.571Z,13.87
2023-03-18T02:34:10.451Z,16.27
2023-03-18T02:36:37.947Z,16.27
2023-03-18T02:39:12.270Z,13.07
2023-03-18T02:41:38.885Z,14.63
2023-03-18T02:44:05.634Z,13.80
2023-03-18T02:46:55.392Z,15.20
2023-03-18T02:49:22.847Z,13.83
2023-03-18T02:51:50.450Z,12.60
2023-03-18T02:54:21.445Z,13.00
2023-03-18T02:56:48.213Z,16.10
2023-03-18T02:59:15.307Z,14.57
2023-03-18T03:01:43.163Z,15.50
2023-03-18T03:04:09.932Z,13.60
2023-03-18T03:06:36.784Z,15.87
2023-03-18T03:09:04.442Z,16.07
2023-03-18T03:11:31.301Z,15.80
2023-03-18T03:14:08.677Z,12.50
2023-03-18T03:16:36.274Z,15.50
2023-03-18T03:19:02.872Z,15.53
2023-03-18T03:21:30.858Z,15.30
2023-03-18T03:23:58.364Z,13.80
2023-03-18T03:26:25.067Z,14.93
2023-03-18T03:28:52.179Z,14.67
2023-03-18T03:31:20.838Z,13.90
2023-03-18T03:33:47.961Z,15.50
2023-03-18T03:36:15.592Z,17.37
2023-03-18T03:38:42.493Z,18.60
2023-03-18T03:41:12.364Z,14.60
2023-03-18T03:43:41.260Z,14.80
2023-03-18T03:46:08.452Z,13.60
2023-03-18T03:48:36.513Z,13.73
2023-03-18T03:51:04.272Z,15.93
2023-03-18T03:53:30.913Z,14.93
2023-03-18T03:55:59.252Z,13.97
2023-03-18T03:58:26.552Z,14.40
2023-03-18T04:00:53.811Z,16.67
2023-03-18T04:03:20.381Z,14.97
2023-03-18T04:05:47.873Z,13.10
2023-03-18T04:08:17.042Z,15.17
2023-03-18T04:10:43.792Z,12.87
2023-03-18T04:13:10.495Z,13.10
2023-03-18T04:15:40.060Z,15.73
2023-03-18T04:18:10.234Z,15.00
2023-03-18T04:20:38.132Z,14.43
2023-03-18T04:23:12.988Z,13.93
2023-03-18T04:25:40.243Z,15.30
2023-03-18T04:28:06.872Z,13.90
2023-03-18T04:30:34.116Z,12.50
2023-03-18T04:33:06.154Z,14.90
2023-03-18T04:35:34.179Z,15.03
2023-03-18T04:38:00.924Z,14.70
2023-03-18T04:40:28.679Z,15.30
2023-03-18T04:42:55.958Z,19.20
2023-03-18T04:45:25.674Z,16.23
2023-03-18T04:47:55.744Z,15.60
2023-03-18T04:50:22.963Z,14.83
2023-03-18T04:52:50.138Z,13.87
2023-03-18T04:55:21.964Z,16.20
2023-03-18T04:57:50.636Z,15.30
2023-03-18T05:00:23.766Z,16.53
2023-03-18T05:02:57.599Z,18.37
2023-03-18T05:05:26.254Z,15.47
2023-03-18T05:07:53.580Z,13.17
2023-03-18T05:10:21.485Z,15.40
2023-03-18T05:12:48.999Z,13.30
2023-03-18T05:15:19.720Z,13.03
2023-03-18T05:17:54.333Z,14.10
2023-03-18T05:20:21.564Z,15.10
2023-03-18T05:22:49.408Z,13.43
2023-03-18T05:25:27.177Z,12.50
2023-03-18T05:27:54.678Z,13.60
2023-03-18T05:30:30.354Z,15.50
2023-03-18T05:32:57.204Z,15.57
2023-03-18T05:35:39.456Z,15.90
2023-03-18T05:38:07.548Z,14.80
2023-03-18T05:40:34.385Z,16.47
2023-03-18T05:43:10.586Z,16.03
2023-03-18T05:45:44.310Z,12.10
2023-03-18T05:48:14.359Z,16.87
2023-03-18T05:50:49.444Z,13.80
2023-03-18T05:53:20.017Z,13.97
2023-03-18T05:55:53.308Z,16.50
2023-03-18T05:58:21.973Z,16.97
2023-03-18T06:00:54.934Z,16.43
2023-03-18T06:03:21.956Z,18.87
2023-03-18T06:05:49.355Z,16.13
2023-03-18T06:08:17.784Z,15.17
2023-03-18T06:10:44.534Z,13.53
2023-03-18T06:13:11.612Z,15.90
2023-03-18T06:15:38.809Z,16.17
2023-03-18T06:18:06.276Z,14.63
2023-03-18T06:20:33.804Z,14.50
2023-03-18T06:23:00.588Z,15.57
2023-03-18T06:25:27.811Z,15.57
2023-03-18T06:27:54.854Z,14.90
2023-03-18T06:30:26.114Z,11.87
2023-03-18T06:32:53.537Z,14.00
2023-03-18T06:35:26.740Z,13.57
2023-03-18T06:37:54.296Z,14.03
2023-03-18T06:40:22.362Z,12.33
2023-03-18T06:42:50.191Z,11.57
2023-03-18T06:45:33.177Z,13.97
2023-03-18T06:48:05.067Z,12.80
2023-03-18T06:50:34.789Z,14.07
2023-03-18T06:53:02.139Z,15.40
2023-03-18T06:55:32.288Z,11.63
2023-03-18T06:57:59.560Z,15.13
2023-03-18T07:00:34.528Z,12.00
2023-03-18T07:03:01.988Z,16.07
2023-03-18T07:05:29.128Z,15.37
2023-03-18T07:07:55.871Z,15.63
2023-03-18T07:10:27.946Z,15.30
2023-03-18T07:13:01.791Z,15.77
2023-03-18T07:15:28.862Z,13.40
2023-03-18T07:17:57.315Z,16.93
2023-03-18T07:20:24.122Z,15.17
2023-03-18T07:22:51.596Z,13.30
2023-03-18T07:25:21.109Z,12.37
2023-03-18T07:27:48.459Z,15.23
2023-03-18T07:30:15.959Z,12.83
2023-03-18T07:32:43.559Z,15.57
2023-03-18T07:35:14.252Z,16.13
2023-03-18T07:37:41.630Z,12.93
2023-03-18T07:40:09.236Z,14.60
2023-03-18T07:42:36.449Z,15.77
2023-03-18T07:45:03.020Z,13.40
2023-03-18T07:47:31.436Z,13.03
2023-03-18T07:49:58.034Z,13.43
2023-03-18T07:52:28.479Z,14.40
2023-03-18T07:54:56.586Z,12.93
2023-03-18T07:57:48.541Z,15.73
2023-03-18T08:00:20.958Z,14.53
2023-03-18T08:02:48.811Z,13.30
2023-03-18T08:05:16.219Z,14.20
2023-03-18T08:07:43.066Z,14.90
2023-03-18T08:10:10.113Z,14.43
2023-03-18T08:12:51.547Z,12.40
2023-03-18T08:15:18.945Z,17.77
2023-03-18T08:17:45.751Z,12.90
2023-03-18T08:20:12.834Z,12.20
2023-03-18T08:22:39.620Z,14.43
2023-03-18T08:25:07.688Z,14.80
2023-03-18T08:27:34.844Z,13.33
2023-03-18T08:30:03.757Z,14.50
2023-03-18T08:32:30.865Z,12.97
2023-03-18T08:34:58.207Z,17.87
2023-03-18T08:37:25.217Z,12.27
2023-03-18T08:39:52.229Z,15.23
2023-03-18T08:42:19.285Z,13.50
2023-03-18T08:44:45.918Z,11.77
2023-03-18T08:47:12.614Z,15.83
2023-03-18T08:49:39.453Z,12.03
2023-03-18T08:52:07.023Z,16.47
2023-03-18T08:54:33.686Z,12.47
2023-03-18T08:57:00.750Z,13.97
2023-03-18T08:59:27.468Z,13.03
2023-03-18T09:01:54.129Z,12.97
2023-03-18T09:04:20.790Z,13.30
2023-03-18T09:06:48.905Z,15.50
2023-03-18T09:09:15.716Z,12.67
2023-03-18T09:11:42.443Z,12.27
2023-03-18T09:14:09.185Z,12.13
2023-03-18T09:16:36.428Z,13.10
2023-03-18T09:19:03.814Z,13.13
2023-03-18T09:21:31.730Z,14.67
2023-03-18T09:23:59.230Z,12.97
2023-03-18T09:26:26.218Z,11.83
2023-03-18T09:28:52.881Z,13.37
2023-03-18T09:31:19.780Z,12.27
2023-03-18T09:33:47.183Z,12.10
2023-03-18T09:36:14.110Z,12.77
2023-03-18T09:38:41.489Z,14.23
2023-03-18T09:41:11.006Z,12.10
2023-03-18T09:43:58.699Z,15.43
2023-03-18T09:46:28.585Z,11.43
2023-03-18T09:49:13.523Z,9.30
2023-03-18T09:52:09.355Z,9.57
2023-03-18T09:54:39.170Z,12.43
2023-03-18T09:57:06.219Z,9.13
2023-03-18T09:59:32.897Z,12.07
2023-03-18T10:02:00.170Z,10.93
2023-03-18T10:04:47.706Z,13.70
2023-03-18T10:07:16.933Z,11.07
2023-03-18T10:09:45.976Z,11.90
2023-03-18T10:12:22.190Z,19.33
2023-03-18T10:14:57.246Z,13.83
2023-03-18T10:17:50.821Z,13.07
2023-03-18T10:20:26.232Z,12.03
2023-03-18T10:23:06.763Z,15.20
2023-03-18T10:25:38.161Z,13.07
2023-03-18T10:28:23.558Z,12.73
2023-03-18T10:31:01.840Z,13.40
2023-03-18T10:33:48.600Z,11.13
2023-03-18T10:36:28.860Z,13.10
2023-03-18T10:38:56.353Z,13.80
2023-03-18T10:41:25.883Z,15.33
2023-03-18T10:43:54.063Z,14.40
2023-03-18T10:46:22.270Z,15.07
2023-03-18T10:48:51.181Z,13.33
2023-03-18T10:51:29.470Z,21.13
2023-03-18T10:54:02.715Z,17.90
2023-03-18T10:56:29.733Z,22.20
2023-03-18T10:58:57.605Z,14.87
2023-03-18T11:01:25.373Z,17.40
2023-03-18T11:04:12.534Z,14.60
2023-03-18T11:06:59.468Z,17.33
2023-03-18T11:09:31.072Z,14.77
2023-03-18T11:11:58.122Z,13.93
2023-03-18T11:14:29.045Z,16.07
2023-03-18T11:17:03.034Z,28.33
2023-03-18T11:19:29.900Z,14.50
2023-03-18T11:22:19.893Z,16.43
2023-03-18T11:24:46.963Z,12.57
2023-03-18T11:27:14.040Z,15.40
2023-03-18T11:29:41.607Z,11.27
2023-03-18T11:32:11.948Z,11.27
2023-03-18T11:34:38.792Z,9.47
2023-03-18T11:37:06.500Z,12.00
2023-03-18T11:39:37.721Z,11.67
2023-03-18T11:42:11.173Z,13.83
2023-03-18T11:44:37.885Z,12.30
2023-03-18T11:47:07.745Z,11.73
2023-03-18T11:49:34.772Z,15.23
2023-03-18T11:52:04.461Z,10.90
2023-03-18T11:54:51.390Z,12.97
2023-03-18T11:57:20.393Z,12.37
2023-03-18T11:59:47.758Z,10.60
2023-03-18T12:02:17.652Z,11.00
2023-03-18T12:04:48.842Z,11.40
2023-03-18T12:07:36.396Z,14.77
2023-03-18T12:10:15.196Z,10.50
2023-03-18T12:13:05.332Z,12.50
2023-03-18T12:15:41.515Z,11.13
2023-03-18T12:18:09.111Z,10.27
2023-03-18T12:20:49.647Z,14.17
2023-03-18T12:23:35.534Z,11.90
2023-03-18T12:26:05.473Z,12.73
2023-03-18T12:28:34.706Z,12.70
2023-03-18T12:31:20.556Z,14.07
2023-03-18T12:33:51.016Z,13.57
2023-03-18T12:36:36.380Z,12.63
2023-03-18T12:39:22.301Z,12.30
2023-03-18T12:42:10.935Z,11.27
2023-03-18T12:44:38.012Z,16.10
2023-03-18T12:47:17.051Z,13.27
2023-03-18T12:49:46.770Z,12.77
2023-03-18T12:52:24.567Z,15.10
2023-03-18T12:54:55.760Z,13.63
2023-03-18T12:57:32.597Z,13.70
2023-03-18T13:00:01.998Z,15.27
2023-03-18T13:02:48.066Z,18.07
2023-03-18T13:05:18.559Z,17.67
2023-03-18T13:07:46.961Z,18.37
2023-03-18T13:10:16.482Z,17.53
2023-03-18T13:12:43.497Z,14.70
2023-03-18T13:15:33.354Z,11.70
2023-03-18T13:18:02.898Z,11.83
2023-03-18T13:20:30.070Z,11.90
2023-03-18T13:23:07.107Z,11.23
2023-03-18T13:25:52.177Z,14.30
2023-03-18T13:28:25.703Z,12.70
2023-03-18T13:30:52.502Z,15.97
2023-03-18T13:33:25.176Z,8.57
2023-03-18T13:35:52.528Z,14.23
2023-03-18T13:38:19.215Z,13.00
2023-03-18T13:41:04.836Z,16.40
2023-03-18T13:43:35.478Z,11.70
2023-03-18T13:46:02.339Z,12.07
2023-03-18T13:48:33.842Z,13.10
2023-03-18T13:51:14.040Z,13.80
2023-03-18T13:53:41.560Z,12.80
2023-03-18T13:56:25.947Z,12.43
2023-03-18T13:58:53.731Z,12.50
2023-03-18T14:01:28.783Z,13.00
2023-03-18T14:03:56.404Z,9.57
2023-03-18T14:06:43.278Z,13.00
2023-03-18T14:09:40.157Z,11.67
2023-03-18T14:12:20.654Z,13.07
2023-03-18T14:14:51.484Z,13.53
2023-03-18T14:17:33.804Z,10.23
2023-03-18T14:20:21.389Z,12.17
2023-03-18T14:22:49.923Z,13.37
2023-03-18T14:25:38.970Z,10.53
2023-03-18T14:28:09.418Z,11.47
2023-03-18T14:30:37.000Z,12.47
2023-03-18T14:33:28.329Z,12.53
2023-03-18T14:35:59.468Z,13.30
2023-03-18T14:38:40.802Z,14.33
2023-03-18T14:41:17.479Z,11.43
2023-03-18T14:43:51.810Z,13.00
2023-03-18T14:46:21.586Z,13.53
2023-03-18T14:48:53.681Z,13.97
2023-03-18T14:51:20.841Z,13.37
2023-03-18T14:53:59.144Z,16.10
2023-03-18T14:56:29.074Z,16.37
2023-03-18T14:58:56.614Z,19.00
2023-03-18T15:01:34.670Z,9.97
2023-03-18T15:04:02.010Z,10.97
2023-03-18T15:06:29.309Z,12.47
2023-03-18T15:09:22.856Z,13.03
2023-03-18T15:11:49.910Z,15.17
2023-03-18T15:14:19.570Z,14.93
2023-03-18T15:16:56.651Z,14.67
2023-03-18T15:19:23.863Z,13.40
2023-03-18T15:21:50.760Z,13.77
2023-03-18T15:24:20.945Z,16.43
2023-03-18T15:26:55.966Z,14.73
2023-03-18T15:29:29.736Z,17.20
2023-03-18T15:32:15.127Z,13.47
2023-03-18T15:34:42.673Z,14.40
2023-03-18T15:37:46.142Z,16.10
2023-03-18T15:40:17.178Z,14.97
2023-03-18T15:42:45.518Z,19.87
2023-03-18T15:45:17.482Z,14.63
2023-03-18T15:47:44.468Z,17.20
2023-03-18T15:50:19.958Z,19.40
2023-03-18T15:52:47.511Z,15.33
2023-03-18T15:55:25.014Z,13.47
2023-03-18T15:57:53.222Z,14.37
2023-03-18T16:00:20.754Z,13.10
2023-03-18T16:02:47.813Z,14.43
2023-03-18T16:05:24.672Z,16.47
2023-03-18T16:07:54.325Z,17.33
2023-03-18T16:10:23.238Z,13.57
2023-03-18T16:12:51.594Z,15.40
2023-03-18T16:15:22.605Z,18.07
2023-03-18T16:17:50.352Z,15.17
2023-03-18T16:20:18.743Z,16.63
2023-03-18T16:22:45.785Z,15.40
2023-03-18T16:25:13.934Z,16.07
2023-03-18T16:27:45.562Z,16.20
2023-03-18T16:30:17.893Z,16.13
2023-03-18T16:32:45.237Z,17.63
2023-03-18T16:35:19.618Z,18.80
2023-03-18T16:37:48.107Z,18.33
2023-03-18T16:40:17.212Z,16.47
2023-03-18T16:42:44.603Z,18.23
2023-03-18T16:45:24.619Z,19.67
2023-03-18T16:47:52.220Z,16.37
2023-03-18T16:50:20.078Z,20.27
2023-03-18T16:52:48.384Z,18.97
2023-03-18T16:55:16.628Z,20.40
2023-03-18T16:58:02.287Z,19.03
2023-03-18T17:00:33.186Z,18.60
2023-03-18T17:03:00.748Z,21.70
2023-03-18T17:05:27.943Z,20.13
2023-03-18T17:07:55.297Z,20.40
2023-03-18T17:10:22.965Z,19.10
2023-03-18T17:12:54.398Z,19.17
2023-03-18T17:15:22.885Z,17.27
2023-03-18T17:17:49.825Z,19.53
2023-03-18T17:20:19.741Z,20.23
2023-03-18T17:22:47.201Z,20.13
2023-03-18T17:25:14.436Z,18.57
2023-03-18T17:27:44.386Z,20.87
2023-03-18T17:30:21.771Z,23.40
2023-03-18T17:32:48.877Z,21.47
2023-03-18T17:35:17.798Z,20.97
2023-03-18T17:37:46.107Z,19.33
2023-03-18T17:40:13.677Z,19.77
2023-03-18T17:42:41.149Z,22.23
2023-03-18T17:45:32.604Z,19.80
2023-03-18T17:48:09.729Z,21.33
2023-03-18T17:50:37.007Z,19.13
2023-03-18T17:53:04.593Z,21.70
2023-03-18T17:55:32.595Z,21.73
2023-03-18T17:58:00.132Z,20.70
2023-03-18T18:00:27.485Z,22.00
2023-03-18T18:03:00.514Z,24.73
2023-03-18T18:05:27.659Z,21.47
2023-03-18T18:07:54.736Z,22.93
2023-03-18T18:10:23.158Z,19.87
2023-03-18T18:12:50.293Z,22.93
2023-03-18T18:15:21.226Z,23.10
2023-03-18T18:18:08.656Z,22.93
2023-03-18T18:20:35.577Z,22.53
2023-03-18T18:23:03.216Z,21.20
2023-03-18T18:25:30.986Z,24.73
2023-03-18T18:27:58.149Z,23.63
2023-03-18T18:30:26.318Z,24.90
2023-03-18T18:32:54.870Z,25.33
2023-03-18T18:35:22.187Z,21.97
2023-03-18T18:37:49.871Z,25.93
2023-03-18T18:40:17.108Z,25.97
2023-03-18T18:42:45.064Z,25.63
2023-03-18T18:45:16.136Z,24.10
2023-03-18T18:47:43.086Z,32.03
2023-03-18T18:50:15.466Z,24.97
2023-03-18T18:52:47.312Z,25.50
2023-03-18T18:55:14.445Z,20.90
2023-03-18T18:57:44.434Z,22.97
2023-03-18T19:00:22.043Z,23.17
2023-03-18T19:02:50.680Z,24.70
2023-03-18T19:05:19.471Z,24.40
2023-03-18T19:07:46.761Z,23.23
2023-03-18T19:10:15.073Z,28.33
2023-03-18T19:12:42.881Z,23.30
2023-03-18T19:15:15.342Z,25.07
2023-03-18T19:17:44.170Z,26.67
2023-03-18T19:20:20.832Z,25.03
2023-03-18T19:22:47.703Z,23.20
2023-03-18T19:25:14.875Z,26.43
2023-03-18T19:27:42.259Z,32.27
2023-03-18T19:30:18.395Z,40.77
2023-03-18T19:32:45.919Z,39.10
2023-03-18T19:35:13.321Z,44.13
2023-03-18T19:37:43.118Z,31.30
2023-03-18T19:40:34.427Z,31.37
2023-03-18T19:43:01.356Z,37.93
2023-03-18T19:45:30.240Z,31.67
2023-03-18T19:47:57.345Z,33.07
2023-03-18T19:50:24.069Z,36.10
2023-03-18T19:52:51.118Z,30.43
2023-03-18T19:55:17.999Z,28.53
2023-03-18T19:57:46.970Z,32.17
2023-03-18T20:00:24.856Z,34.97
2023-03-18T20:02:54.706Z,31.13
2023-03-18T20:05:22.094Z,30.80
2023-03-18T20:07:50.503Z,32.10
2023-03-18T20:10:18.173Z,33.87
2023-03-18T20:12:45.888Z,35.50
2023-03-18T20:15:13.984Z,38.30
2023-03-18T20:17:41.585Z,38.77
2023-03-18T20:20:14.763Z,36.47
2023-03-18T20:22:42.378Z,34.50
2023-03-18T20:25:12.271Z,36.53
2023-03-18T20:27:39.361Z,37.13
2023-03-18T20:30:10.578Z,41.80
2023-03-18T20:32:37.910Z,38.40
2023-03-18T20:35:06.051Z,35.63
2023-03-18T20:37:36.250Z,35.10
2023-03-18T20:40:03.039Z,35.10
2023-03-18T20:42:32.596Z,41.43
2023-03-18T20:44:59.367Z,35.60
2023-03-18T20:47:26.084Z,39.83
2023-03-18T20:49:55.576Z,37.63
2023-03-18T20:52:28.956Z,34.00
2023-03-18T20:54:57.104Z,35.00
2023-03-18T20:57:24.270Z,36.23
2023-03-18T20:59:51.716Z,34.80
2023-03-18T21:02:31.484Z,33.67
2023-03-18T21:04:58.933Z,33.53
2023-03-18T21:07:26.258Z,34.57
2023-03-18T21:09:53.353Z,33.60
2023-03-18T21:12:20.792Z,34.53
2023-03-18T21:14:47.950Z,29.37
2023-03-18T21:17:19.922Z,29.07
2023-03-18T21:19:47.444Z,26.27
2023-03-18T21:22:16.470Z,28.63
2023-03-18T21:24:43.841Z,32.10
2023-03-18T21:27:15.411Z,31.50
2023-03-18T21:29:43.324Z,29.10
2023-03-18T21:32:12.340Z,29.97
2023-03-18T21:34:39.138Z,33.83
2023-03-18T21:37:10.106Z,30.43
2023-03-18T21:39:37.265Z,28.37
2023-03-18T21:42:04.111Z,28.50
2023-03-18T21:44:31.124Z,29.93
2023-03-18T21:46:59.153Z,28.37
2023-03-18T21:49:26.307Z,27.37
2023-03-18T21:51:53.116Z,27.30
2023-03-18T21:54:19.963Z,27.47
2023-03-18T21:56:46.660Z,31.73
2023-03-18T21:59:13.347Z,31.30
2023-03-18T22:01:40.348Z,30.00
2023-03-18T22:04:07.193Z,29.17
2023-03-18T22:06:34.484Z,28.67
2023-03-18T22:09:01.340Z,30.07
2023-03-18T22:11:28.127Z,28.67
2023-03-18T22:13:55.355Z,31.57
2023-03-18T22:16:22.244Z,28.47
2023-03-18T22:18:49.235Z,27.27
2023-03-18T22:21:19.930Z,29.50
2023-03-18T22:23:48.232Z,30.10
2023-03-18T22:26:16.232Z,28.37
2023-03-18T22:28:44.192Z,30.57
2023-03-18T22:31:18.535Z,32.73
2023-03-18T22:33:46.599Z,31.97
2023-03-18T22:36:14.057Z,29.50
2023-03-18T22:38:41.200Z,30.77
2023-03-18T22:41:12.787Z,31.27
2023-03-18T22:43:39.693Z,29.93
2023-03-18T22:46:07.234Z,31.03
2023-03-18T22:48:34.177Z,33.47
2023-03-18T22:51:01.507Z,33.20
2023-03-18T22:53:32.633Z,32.37
2023-03-18T22:56:00.855Z,30.83
2023-03-18T22:58:27.635Z,34.27
2023-03-18T23:00:54.500Z,29.10
2023-03-18T23:03:22.707Z,30.90
2023-03-18T23:05:50.763Z,32.57
2023-03-18T23:08:17.998Z,31.00
2023-03-18T23:10:44.873Z,30.93
2023-03-18T23:13:13.202Z,28.93
2023-03-18T23:15:40.168Z,28.37
2023-03-18T23:18:08.172Z,31.17
2023-03-18T23:20:35.032Z,29.20
2023-03-18T23:23:01.958Z,31.27
2023-03-18T23:25:28.707Z,32.20
2023-03-18T23:27:55.379Z,34.07
2023-03-18T23:30:22.146Z,31.97
2023-03-18T23:32:48.932Z,36.67
2023-03-18T23:35:16.873Z,35.30
2023-03-18T23:37:43.606Z,44.77
2023-03-18T23:40:10.622Z,38.30
2023-03-18T23:42:37.467Z,38.13
2023-03-18T23:45:05.343Z,37.47
2023-03-18T23:47:31.971Z,38.70
2023-03-18T23:49:58.604Z,49.90
2023-03-18T23:52:25.327Z,35.33
2023-03-18T23:54:52.002Z,41.43
2023-03-18T23:57:18.606Z,37.63
2023-03-18T23:59:45.372Z,40.70
